Time;durP1;ratioP1;P1;durP2;ratioP2;P2;SDS_P1;SDS_P2;PMS_P1;PMS_P2;Temp;Humidity;BMP_temperature;BMP_pressure;BME280_temperature;BME280_humidity;BME280_pressure;Samples;Min_cycle;Max_cycle;Signal;HPM_P1;HPM_P2
2023/05/29 00:01:13;;;;;;;8.10;6.63;;;20.90;52.90;;;;;;5022602;28;20285;-66
2023/05/29 00:03:38;;;;;;;7.97;6.70;;;20.90;52.80;;;;;;5030029;28;20173;-66
2023/05/29 00:06:05;;;;;;;8.27;6.67;;;20.80;52.80;;;;;;5022442;28;20350;-66
2023/05/29 00:08:31;;;;;;;10.07;6.80;;;20.80;53.00;;;;;;5020239;28;20211;-66
2023/05/29 00:10:57;;;;;;;8.80;7.03;;;20.80;53.30;;;;;;5021653;28;20870;-66
2023/05/29 00:13:23;;;;;;;8.93;6.60;;;20.80;53.20;;;;;;5021177;28;20829;-66
2023/05/29 00:15:48;;;;;;;8.27;7.03;;;20.80;53.20;;;;;;5026542;28;20184;-66
2023/05/29 00:18:14;;;;;;;7.93;7.13;;;20.80;53.20;;;;;;5022333;28;20291;-66
2023/05/29 00:20:40;;;;;;;7.60;5.87;;;20.70;53.10;;;;;;5021148;28;20212;-66
2023/05/29 00:23:06;;;;;;;10.37;7.60;;;20.70;53.00;;;;;;5021806;28;20227;-66
2023/05/29 00:25:32;;;;;;;8.90;6.90;;;20.70;53.00;;;;;;5025865;28;20422;-66
2023/05/29 00:27:57;;;;;;;8.30;6.60;;;20.60;53.00;;;;;;5022991;28;20416;-66
2023/05/29 00:30:23;;;;;;;8.73;5.90;;;20.60;53.10;;;;;;5021747;28;20180;-66
2023/05/29 00:32:49;;;;;;;11.27;6.63;;;20.60;53.30;;;;;;5023861;28;20302;-66
2023/05/29 00:35:15;;;;;;;9.10;6.57;;;20.60;53.20;;;;;;5028106;28;20188;-65
2023/05/29 00:37:40;;;;;;;7.93;6.10;;;20.60;53.30;;;;;;5022671;28;20470;-66
2023/05/29 00:40:07;;;;;;;7.13;6.43;;;20.50;53.10;;;;;;5020385;28;20215;-66
2023/05/29 00:42:32;;;;;;;8.53;6.70;;;20.50;53.10;;;;;;5022613;28;20177;-66
2023/05/29 00:44:58;;;;;;;10.13;6.27;;;20.50;53.20;;;;;;5022149;28;20432;-66
2023/05/29 00:47:24;;;;;;;6.63;5.80;;;20.50;53.30;;;;;;5025526;28;20180;-66
2023/05/29 00:49:51;;;;;;;7.97;6.03;;;20.50;53.40;;;;;;5022019;28;20212;-66
2023/05/29 00:52:18;;;;;;;8.70;6.57;;;20.50;53.40;;;;;;5024483;28;20443;-65
2023/05/29 00:54:46;;;;;;;10.40;6.47;;;20.40;53.30;;;;;;5018208;28;20443;-66
2023/05/29 00:57:13;;;;;;;9.57;6.43;;;20.40;53.30;;;;;;5025097;28;20460;-66
2023/05/29 00:59:40;;;;;;;7.73;6.87;;;20.30;53.30;;;;;;5018364;28;20463;-66
2023/05/29 01:02:06;;;;;;;9.17;5.90;;;20.30;53.30;;;;;;5025466;28;20561;-66
2023/05/29 01:04:35;;;;;;;9.63;6.47;;;20.30;53.20;;;;;;5023990;28;20524;-66
2023/05/29 01:07:02;;;;;;;12.13;6.40;;;20.30;53.10;;;;;;5022866;28;20319;-66
2023/05/29 01:09:34;;;;;;;9.40;5.73;;;20.30;53.10;;;;;;5025787;28;20460;-66
2023/05/29 01:12:30;;;;;;;7.87;5.90;;;20.30;53.60;;;;;;5024574;28;20491;-66
2023/05/29 01:15:07;;;;;;;9.50;6.23;;;20.20;53.00;;;;;;5019745;28;20506;-66
2023/05/29 01:17:58;;;;;;;7.53;5.93;;;20.20;53.10;;;;;;5024857;28;20984;-66
2023/05/29 01:20:50;;;;;;;7.27;5.70;;;20.20;53.20;;;;;;5023999;28;20439;-66
2023/05/29 01:23:51;;;;;;;8.57;6.50;;;20.10;53.20;;;;;;5019244;28;21109;-66
2023/05/29 01:26:51;;;;;;;7.97;5.50;;;20.10;53.40;;;;;;5016429;28;20442;-66
2023/05/29 01:29:24;;;;;;;8.80;5.93;;;20.10;53.50;;;;;;5015200;28;20507;-66
2023/05/29 01:31:51;;;;;;;7.50;5.90;;;20.00;53.50;;;;;;5021460;28;20530;-66
2023/05/29 01:34:17;;;;;;;6.17;5.40;;;20.00;53.60;;;;;;5024742;28;20493;-66
2023/05/29 01:36:42;;;;;;;9.90;6.40;;;20.00;53.60;;;;;;5024602;28;20458;-66
2023/05/29 01:39:09;;;;;;;8.27;6.20;;;19.90;53.80;;;;;;5015625;28;20732;-66
2023/05/29 01:41:35;;;;;;;7.40;5.40;;;19.90;53.80;;;;;;5022641;28;20605;-66
2023/05/29 01:44:08;;;;;;;8.80;6.47;;;19.80;53.80;;;;;;5018353;28;20419;-66
2023/05/29 01:46:35;;;;;;;9.70;5.93;;;19.80;53.90;;;;;;5017933;28;20470;-66
2023/05/29 01:49:01;;;;;;;11.63;5.93;;;19.80;53.90;;;;;;5025804;28;20499;-66
2023/05/29 01:51:27;;;;;;;7.60;5.83;;;19.70;54.20;;;;;;5023987;28;21182;-66
2023/05/29 01:53:52;;;;;;;9.13;6.10;;;19.60;54.20;;;;;;5028513;28;20263;-66
2023/05/29 01:56:19;;;;;;;10.43;6.50;;;19.60;54.20;;;;;;5026612;28;20191;-66
2023/05/29 01:58:45;;;;;;;6.13;5.53;;;19.60;54.30;;;;;;5034580;28;20223;-66
2023/05/29 02:01:11;;;;;;;7.33;5.53;;;19.60;54.40;;;;;;5022639;28;20501;-65
2023/05/29 02:03:37;;;;;;;6.97;5.70;;;19.50;54.50;;;;;;5021515;28;20502;-65
2023/05/29 02:06:02;;;;;;;8.43;6.47;;;19.50;54.60;;;;;;5027766;28;20184;-65
2023/05/29 02:08:28;;;;;;;9.03;6.80;;;19.40;54.70;;;;;;5024284;28;20555;-65
2023/05/29 02:10:54;;;;;;;8.23;6.10;;;19.40;54.80;;;;;;5026782;28;20180;-66
2023/05/29 02:13:20;;;;;;;7.43;5.63;;;19.30;54.90;;;;;;5027463;28;20192;-65
2023/05/29 02:15:46;;;;;;;10.30;5.73;;;19.30;55.20;;;;;;5028739;28;20415;-65
2023/05/29 02:18:17;;;;;;;9.33;5.70;;;19.30;55.30;;;;;;5029205;28;21124;-65
2023/05/29 02:20:42;;;;;;;9.50;6.07;;;19.20;55.40;;;;;;5031516;28;20557;-65
2023/05/29 02:23:11;;;;;;;8.47;5.83;;;19.20;55.40;;;;;;5021278;28;20431;-66
2023/05/29 02:25:36;;;;;;;5.80;5.30;;;19.20;55.50;;;;;;5029108;28;20230;-65
2023/05/29 02:28:03;;;;;;;10.43;6.10;;;19.10;55.60;;;;;;5023702;28;20428;-65
2023/05/29 02:30:29;;;;;;;6.40;5.43;;;19.10;55.60;;;;;;5024823;28;20184;-65
2023/05/29 02:32:55;;;;;;;6.63;4.93;;;19.10;55.60;;;;;;5027967;28;20418;-65
2023/05/29 02:35:22;;;;;;;9.00;5.03;;;19.10;55.60;;;;;;5024266;28;20930;-65
2023/05/29 02:37:51;;;;;;;8.43;6.37;;;19.00;55.60;;;;;;5021012;28;20402;-65
2023/05/29 02:40:17;;;;;;;6.73;6.13;;;19.00;55.50;;;;;;5018735;28;20455;-65
2023/05/29 02:42:43;;;;;;;7.17;5.83;;;19.00;55.50;;;;;;5021010;28;20871;-65
2023/05/29 02:45:09;;;;;;;6.57;5.30;;;18.90;55.60;;;;;;5020092;28;20450;-65
2023/05/29 02:47:35;;;;;;;8.83;5.70;;;18.90;55.60;;;;;;5021526;28;20182;-66
2023/05/29 02:50:01;;;;;;;7.40;5.70;;;18.90;55.60;;;;;;5024675;28;20239;-65
2023/05/29 02:52:27;;;;;;;6.73;5.50;;;18.80;55.70;;;;;;5024578;28;20527;-65
2023/05/29 02:54:54;;;;;;;9.10;5.50;;;18.80;56.00;;;;;;5027690;28;20422;-65
2023/05/29 02:57:20;;;;;;;14.90;6.43;;;18.80;56.20;;;;;;5037330;28;20230;-65
2023/05/29 02:59:45;;;;;;;8.13;6.03;;;18.70;56.40;;;;;;5023213;28;20494;-65
2023/05/29 03:02:11;;;;;;;7.80;6.17;;;18.70;56.60;;;;;;5025631;28;20441;-65
2023/05/29 03:04:37;;;;;;;7.80;5.90;;;18.70;56.80;;;;;;5028881;28;20180;-65
2023/05/29 03:07:03;;;;;;;7.67;6.00;;;18.60;57.10;;;;;;5030326;28;20202;-65
2023/05/29 03:09:28;;;;;;;7.67;6.00;;;18.60;57.30;;;;;;5024858;28;20654;-65
2023/05/29 03:11:54;;;;;;;8.97;5.93;;;18.50;57.40;;;;;;5023595;28;20203;-65
2023/05/29 03:14:21;;;;;;;7.03;5.70;;;18.50;57.50;;;;;;5025641;28;20296;-64
2023/05/29 03:16:47;;;;;;;7.53;5.33;;;18.50;57.60;;;;;;5025700;28;20236;-64
2023/05/29 03:19:13;;;;;;;8.30;5.90;;;18.50;57.60;;;;;;5025529;28;20467;-64
2023/05/29 03:21:39;;;;;;;6.10;5.50;;;18.50;57.60;;;;;;5028507;28;20411;-64
2023/05/29 03:24:05;;;;;;;8.40;5.73;;;18.40;57.80;;;;;;5018992;28;20831;-64
2023/05/29 03:26:30;;;;;;;9.63;5.13;;;18.40;57.90;;;;;;5028445;28;20176;-64
2023/05/29 03:28:56;;;;;;;7.63;5.90;;;18.40;58.00;;;;;;5020901;28;20449;-64
2023/05/29 03:31:22;;;;;;;6.57;5.53;;;18.30;58.30;;;;;;5038601;28;20199;-64
2023/05/29 03:33:48;;;;;;;6.50;5.13;;;18.30;58.30;;;;;;5023050;28;20192;-64
2023/05/29 03:36:13;;;;;;;6.97;5.07;;;18.30;58.30;;;;;;5027085;28;20207;-64
2023/05/29 03:38:39;;;;;;;7.67;5.30;;;18.30;58.40;;;;;;5030072;28;21188;-65
2023/05/29 03:41:05;;;;;;;6.70;5.23;;;18.30;58.60;;;;;;5021945;28;20181;-65
2023/05/29 03:43:30;;;;;;;11.30;6.73;;;18.30;58.70;;;;;;5019512;28;20307;-65
2023/05/29 03:45:56;;;;;;;9.90;5.40;;;18.30;58.70;;;;;;5027615;28;20661;-64
2023/05/29 03:48:22;;;;;;;9.00;5.97;;;18.30;58.80;;;;;;5024336;28;20204;-64
2023/05/29 03:50:47;;;;;;;6.07;5.03;;;18.20;58.90;;;;;;5028574;28;22371;-64
2023/05/29 03:53:13;;;;;;;6.37;5.43;;;18.20;59.00;;;;;;5028270;28;20219;-64
2023/05/29 03:55:38;;;;;;;6.13;5.50;;;18.20;59.10;;;;;;5023038;28;20212;-64
2023/05/29 03:58:04;;;;;;;6.40;5.57;;;18.20;59.20;;;;;;5027240;28;20239;-64
2023/05/29 04:00:30;;;;;;;9.37;6.40;;;18.20;59.40;;;;;;5025493;28;20230;-64
2023/05/29 04:02:56;;;;;;;7.83;5.80;;;18.10;59.50;;;;;;5023146;28;20285;-64
2023/05/29 04:05:21;;;;;;;9.13;6.00;;;18.10;59.70;;;;;;5034160;28;20236;-64
2023/05/29 04:07:47;;;;;;;7.50;5.50;;;18.10;59.70;;;;;;5020556;28;20446;-65
2023/05/29 04:10:13;;;;;;;9.93;5.70;;;18.10;59.80;;;;;;5023942;28;20188;-64
2023/05/29 04:12:39;;;;;;;6.90;6.13;;;18.10;59.90;;;;;;5027737;28;20447;-64
2023/05/29 04:15:05;;;;;;;6.90;6.13;;;18.00;60.00;;;;;;5023996;28;20180;-64
2023/05/29 04:17:31;;;;;;;6.97;5.53;;;18.00;61.10;;;;;;5025306;28;20506;-64
2023/05/29 04:19:57;;;;;;;9.03;6.07;;;18.00;60.20;;;;;;5022684;28;20493;-64
2023/05/29 04:22:22;;;;;;;5.97;5.20;;;18.00;60.20;;;;;;5030482;28;20175;-65
2023/05/29 04:24:48;;;;;;;8.87;5.87;;;18.00;60.30;;;;;;5020964;28;20207;-64
2023/05/29 04:27:13;;;;;;;7.40;5.80;;;17.90;60.30;;;;;;5023987;28;20187;-64
2023/05/29 04:29:42;;;;;;;9.20;6.00;;;18.00;60.50;;;;;;5024270;28;20219;-64
2023/05/29 04:32:11;;;;;;;8.37;6.00;;;17.90;60.50;;;;;;5028484;28;20176;-64
2023/05/29 04:34:38;;;;;;;7.30;5.17;;;17.90;60.60;;;;;;5026600;28;20415;-64
2023/05/29 04:37:04;;;;;;;6.83;5.50;;;17.90;60.80;;;;;;5023269;28;20486;-64
2023/05/29 04:39:31;;;;;;;7.17;5.37;;;17.90;61.00;;;;;;5018320;28;20478;-64
2023/05/29 04:41:58;;;;;;;6.53;5.33;;;17.80;61.10;;;;;;5024132;28;20498;-64
2023/05/29 04:44:28;;;;;;;6.60;5.43;;;17.90;61.30;;;;;;5029529;28;20971;-64
2023/05/29 04:46:54;;;;;;;8.50;6.03;;;17.80;61.10;;;;;;5027440;28;20415;-64
2023/05/29 04:49:20;;;;;;;8.23;5.97;;;17.90;61.40;;;;;;5025204;28;20436;-65
2023/05/29 04:51:46;;;;;;;8.53;5.57;;;17.80;61.40;;;;;;5023932;28;20180;-65
2023/05/29 04:54:12;;;;;;;12.27;5.40;;;17.80;61.60;;;;;;5021302;28;20246;-65
2023/05/29 04:56:39;;;;;;;8.33;5.50;;;17.80;61.90;;;;;;5025990;28;20497;-65
2023/05/29 04:59:06;;;;;;;11.63;6.10;;;17.80;62.00;;;;;;5028737;28;20504;-65
2023/05/29 05:01:33;;;;;;;10.67;6.00;;;17.70;62.20;;;;;;5030562;28;20411;-65
2023/05/29 05:03:59;;;;;;;7.73;5.50;;;17.80;62.30;;;;;;5025170;28;20795;-65
2023/05/29 05:06:25;;;;;;;6.80;5.67;;;17.80;62.40;;;;;;5027445;28;20426;-65
2023/05/29 05:08:51;;;;;;;7.90;6.53;;;17.80;62.50;;;;;;5023418;28;20435;-65
2023/05/29 05:11:18;;;;;;;13.20;5.60;;;17.80;62.60;;;;;;5025939;28;20209;-65
2023/05/29 05:13:44;;;;;;;8.73;6.80;;;17.80;62.70;;;;;;5028009;28;20921;-65
2023/05/29 05:16:09;;;;;;;9.50;6.13;;;17.80;63.20;;;;;;5025172;28;20414;-65
2023/05/29 05:18:36;;;;;;;8.33;6.07;;;17.80;63.20;;;;;;5024749;28;20750;-65
2023/05/29 05:21:03;;;;;;;7.57;6.23;;;17.80;63.10;;;;;;5028335;28;20292;-65
2023/05/29 05:23:29;;;;;;;7.67;5.70;;;17.80;63.40;;;;;;5022126;28;20414;-65
2023/05/29 05:25:55;;;;;;;10.23;5.87;;;17.80;63.50;;;;;;5029648;28;20800;-65
2023/05/29 05:28:21;;;;;;;8.63;5.70;;;17.80;63.50;;;;;;5022159;28;20459;-65
2023/05/29 05:30:46;;;;;;;8.57;6.07;;;17.80;63.50;;;;;;5028083;28;20188;-65
2023/05/29 05:33:12;;;;;;;7.07;6.30;;;17.80;63.70;;;;;;5024979;28;20187;-65
2023/05/29 05:35:38;;;;;;;9.83;6.00;;;17.80;63.90;;;;;;5020050;28;20554;-65
2023/05/29 05:38:03;;;;;;;11.30;6.83;;;17.90;64.10;;;;;;5018289;28;20209;-65
2023/05/29 05:40:29;;;;;;;10.37;5.50;;;17.90;64.30;;;;;;5019275;28;20261;-65
2023/05/29 05:42:55;;;;;;;7.73;5.83;;;17.90;64.30;;;;;;5023545;28;20187;-65
2023/05/29 05:45:20;;;;;;;9.10;6.10;;;17.90;64.40;;;;;;5020417;28;20176;-65
2023/05/29 05:47:47;;;;;;;10.97;5.93;;;18.00;64.40;;;;;;5017887;28;20559;-65
2023/05/29 05:50:12;;;;;;;8.70;6.20;;;18.00;64.40;;;;;;5027062;28;20287;-66
2023/05/29 05:52:38;;;;;;;10.00;6.30;;;18.00;64.40;;;;;;5024258;28;21081;-65
2023/05/29 05:55:04;;;;;;;6.97;6.00;;;18.10;64.50;;;;;;5024545;28;20185;-65
2023/05/29 05:57:32;;;;;;;8.20;5.90;;;18.10;64.50;;;;;;5021549;28;20296;-65
2023/05/29 05:59:58;;;;;;;7.00;5.53;;;18.10;64.50;;;;;;5026508;28;20445;-65
2023/05/29 06:02:23;;;;;;;7.83;5.57;;;18.20;64.40;;;;;;5013968;28;20477;-65
2023/05/29 06:04:50;;;;;;;7.90;6.10;;;18.20;64.60;;;;;;5023945;28;20892;-65
2023/05/29 06:07:15;;;;;;;18.00;12.90;;;18.20;64.50;;;;;;5022689;28;20184;-65
2023/05/29 06:09:41;;;;;;;14.20;8.27;;;18.30;64.20;;;;;;5020851;28;20821;-65
2023/05/29 06:12:08;;;;;;;16.87;13.80;;;18.30;64.10;;;;;;5024890;28;20192;-65
2023/05/29 06:14:34;;;;;;;10.00;7.67;;;18.30;64.00;;;;;;5029171;28;20430;-65
2023/05/29 06:17:00;;;;;;;13.47;8.57;;;18.40;64.10;;;;;;5020456;28;20460;-65
2023/05/29 06:19:25;;;;;;;8.10;5.90;;;18.40;64.20;;;;;;5019635;28;20222;-65
2023/05/29 06:21:51;;;;;;;10.23;8.30;;;18.50;64.10;;;;;;5019754;28;20415;-65
2023/05/29 06:24:16;;;;;;;8.10;6.30;;;18.60;63.90;;;;;;5022717;28;20173;-65
2023/05/29 06:26:42;;;;;;;10.70;6.33;;;18.60;63.50;;;;;;5026923;28;20185;-65
2023/05/29 06:29:07;;;;;;;6.90;6.20;;;18.60;63.00;;;;;;5021582;28;20236;-65
2023/05/29 06:31:33;;;;;;;13.50;5.70;;;18.70;63.60;;;;;;5021739;28;20239;-65
2023/05/29 06:33:59;;;;;;;10.60;6.10;;;18.80;62.40;;;;;;5028666;28;20173;-65
2023/05/29 06:36:25;;;;;;;9.57;5.10;;;18.80;62.30;;;;;;5021201;28;20449;-65
2023/05/29 06:38:51;;;;;;;7.13;5.27;;;18.90;61.90;;;;;;5025727;28;20212;-65
2023/05/29 06:41:17;;;;;;;8.30;6.50;;;18.90;62.30;;;;;;5029170;28;20411;-65
2023/05/29 06:43:43;;;;;;;7.50;5.50;;;19.00;61.10;;;;;;5026555;28;20420;-65
2023/05/29 06:46:09;;;;;;;6.83;5.43;;;19.00;60.70;;;;;;5024763;28;20186;-65
2023/05/29 06:48:35;;;;;;;8.80;5.70;;;19.10;60.70;;;;;;5023702;28;20562;-65
2023/05/29 06:51:11;;;;;;;7.13;4.70;;;19.10;60.50;;;;;;5033676;28;20653;-65
2023/05/29 06:53:40;;;;;;;6.50;5.33;;;19.20;60.40;;;;;;5027922;28;20481;-65
2023/05/29 06:56:06;;;;;;;6.00;5.17;;;19.30;59.80;;;;;;5021936;28;20439;-65
2023/05/29 06:58:32;;;;;;;6.77;5.03;;;19.30;59.60;;;;;;5031750;28;20454;-65
2023/05/29 07:00:58;;;;;;;8.47;6.87;;;19.40;59.50;;;;;;5028219;28;20176;-65
2023/05/29 07:03:25;;;;;;;16.03;11.20;;;19.50;59.10;;;;;;5025780;28;20177;-65
2023/05/29 07:05:51;;;;;;;6.17;5.50;;;19.60;58.60;;;;;;5026280;28;20436;-65
2023/05/29 07:08:16;;;;;;;12.13;6.23;;;19.60;58.40;;;;;;5026089;28;20459;-65
2023/05/29 07:10:42;;;;;;;9.03;6.10;;;19.60;58.10;;;;;;5024683;28;20561;-65
2023/05/29 07:13:08;;;;;;;8.60;7.50;;;19.70;58.30;;;;;;5028151;28;20182;-65
2023/05/29 07:15:34;;;;;;;7.50;6.37;;;19.80;58.40;;;;;;5024765;28;20268;-65
2023/05/29 07:18:00;;;;;;;10.50;7.83;;;19.80;58.50;;;;;;5021956;28;20546;-65
2023/05/29 07:20:26;;;;;;;10.20;8.40;;;19.90;58.50;;;;;;5028830;28;20242;-65
2023/05/29 07:22:52;;;;;;;9.50;7.10;;;19.90;58.50;;;;;;5054455;28;20969;-65
2023/05/29 07:25:17;;;;;;;7.97;5.53;;;20.00;58.50;;;;;;5025134;28;20441;-65
2023/05/29 07:27:43;;;;;;;7.27;4.67;;;20.00;58.50;;;;;;5025697;28;20260;-65
2023/05/29 07:30:09;;;;;;;6.03;5.03;;;20.10;58.70;;;;;;5024181;28;20200;-65
2023/05/29 07:32:35;;;;;;;6.77;5.70;;;20.10;58.80;;;;;;5027234;28;20191;-65
2023/05/29 07:35:00;;;;;;;11.60;8.20;;;20.20;58.50;;;;;;5030594;28;20442;-65
2023/05/29 07:37:26;;;;;;;6.20;5.53;;;20.30;58.30;;;;;;5030523;28;20664;-65
2023/05/29 07:39:52;;;;;;;5.60;5.10;;;20.30;58.10;;;;;;5019378;28;20201;-65
2023/05/29 07:42:17;;;;;;;7.43;5.77;;;20.40;58.00;;;;;;5022951;28;20169;-65
2023/05/29 07:44:44;;;;;;;7.63;6.43;;;20.50;58.00;;;;;;5024444;28;20216;-65
2023/05/29 07:47:10;;;;;;;8.20;5.50;;;20.50;57.90;;;;;;5023531;28;20262;-65
2023/05/29 07:49:35;;;;;;;9.00;7.40;;;20.50;57.60;;;;;;5024860;28;20434;-65
2023/05/29 07:52:02;;;;;;;11.87;7.20;;;20.60;57.60;;;;;;5026031;28;20423;-65
2023/05/29 07:54:28;;;;;;;6.40;5.80;;;20.60;57.70;;;;;;5024462;28;20185;-65
2023/05/29 07:56:54;;;;;;;12.73;6.40;;;20.70;57.80;;;;;;5028806;28;20458;-65
2023/05/29 07:59:21;;;;;;;8.03;6.50;;;20.70;57.70;;;;;;5029011;28;20193;-65
2023/05/29 08:01:47;;;;;;;6.00;5.33;;;20.80;57.50;;;;;;5029347;28;20937;-65
2023/05/29 08:04:12;;;;;;;7.77;5.20;;;20.90;57.50;;;;;;5028062;28;20468;-65
2023/05/29 08:06:42;;;;;;;6.77;5.57;;;20.90;57.30;;;;;;5026040;28;20411;-65
2023/05/29 08:09:07;;;;;;;12.00;10.20;;;21.00;57.10;;;;;;5027487;28;20401;-65
2023/05/29 08:11:33;;;;;;;6.90;4.97;;;21.00;57.10;;;;;;5024558;28;20411;-65
2023/05/29 08:13:59;;;;;;;7.03;5.63;;;21.10;57.10;;;;;;5023663;28;20706;-65
2023/05/29 08:16:27;;;;;;;6.73;5.70;;;21.20;56.90;;;;;;5025249;28;20176;-65
2023/05/29 08:18:52;;;;;;;7.23;5.60;;;21.20;56.80;;;;;;5025156;28;20882;-65
2023/05/29 08:21:18;;;;;;;7.63;5.47;;;21.30;56.70;;;;;;5021886;28;20570;-66
2023/05/29 08:23:44;;;;;;;7.60;6.00;;;21.30;56.80;;;;;;5028439;28;20318;-66
2023/05/29 08:26:09;;;;;;;9.77;8.30;;;21.40;57.00;;;;;;5021923;28;20682;-66
2023/05/29 08:28:35;;;;;;;7.70;5.93;;;21.40;57.00;;;;;;5028262;28;20204;-65
2023/05/29 08:31:01;;;;;;;6.03;5.50;;;21.50;56.70;;;;;;5019637;28;20640;-66
2023/05/29 08:33:26;;;;;;;6.10;5.10;;;21.60;56.70;;;;;;5025465;28;20649;-66
2023/05/29 08:35:52;;;;;;;8.07;5.47;;;21.60;56.80;;;;;;5023857;28;20704;-66
2023/05/29 08:38:17;;;;;;;6.30;4.90;;;21.70;56.60;;;;;;5019750;28;20688;-66
2023/05/29 08:40:43;;;;;;;7.10;6.40;;;21.80;56.10;;;;;;5018313;28;20181;-66
2023/05/29 08:43:16;;;;;;;10.30;9.30;;;21.80;56.40;;;;;;5026152;28;20180;-66
2023/05/29 08:45:45;;;;;;;9.73;8.73;;;21.80;56.40;;;;;;5019629;28;20734;-66
2023/05/29 08:48:12;;;;;;;10.80;6.63;;;21.90;56.50;;;;;;5022009;28;20432;-66
2023/05/29 08:50:47;;;;;;;6.50;5.70;;;22.00;56.70;;;;;;5017098;28;20419;-66
2023/05/29 08:53:18;;;;;;;6.93;5.33;;;22.00;56.60;;;;;;5019065;28;20479;-64
2023/05/29 08:55:46;;;;;;;5.43;4.73;;;22.10;56.50;;;;;;5023490;28;20482;-64
2023/05/29 08:58:13;;;;;;;11.30;6.97;;;22.20;56.30;;;;;;5018940;28;20570;-64
2023/05/29 09:00:40;;;;;;;10.40;5.77;;;22.20;56.20;;;;;;5019933;28;20675;-64
2023/05/29 09:03:07;;;;;;;7.33;6.10;;;22.30;56.00;;;;;;5022039;28;20408;-65
2023/05/29 09:05:33;;;;;;;7.23;5.67;;;22.40;55.50;;;;;;5015546;28;20488;-65
2023/05/29 09:07:59;;;;;;;10.13;6.90;;;22.40;55.40;;;;;;5020960;28;20435;-65
2023/05/29 09:10:27;;;;;;;7.90;7.10;;;22.50;55.20;;;;;;5023465;28;20415;-65
2023/05/29 09:12:53;;;;;;;6.63;5.33;;;22.60;55.40;;;;;;5023535;28;20415;-65
2023/05/29 09:15:20;;;;;;;18.80;14.07;;;22.60;55.30;;;;;;5020515;28;20420;-65
2023/05/29 09:17:54;;;;;;;6.50;5.83;;;22.70;55.20;;;;;;5023905;28;21071;-65
2023/05/29 09:20:24;;;;;;;7.47;6.13;;;22.80;55.50;;;;;;5028651;28;20784;-65
2023/05/29 09:23:03;;;;;;;7.13;5.47;;;22.90;54.60;;;;;;5024006;28;20411;-65
2023/05/29 09:25:31;;;;;;;7.30;5.23;;;23.00;54.60;;;;;;5022152;28;20827;-65
2023/05/29 09:28:07;;;;;;;8.63;6.57;;;23.10;54.80;;;;;;5022158;28;20439;-65
2023/05/29 09:30:38;;;;;;;8.17;6.20;;;23.10;54.40;;;;;;5019321;28;20430;-65
2023/05/29 09:33:05;;;;;;;8.00;6.30;;;23.10;54.40;;;;;;5026696;28;20484;-65
2023/05/29 09:35:44;;;;;;;6.77;4.60;;;23.20;54.20;;;;;;5021448;28;20624;-65
2023/05/29 09:38:17;;;;;;;8.27;6.07;;;23.30;54.10;;;;;;5019512;28;20451;-65
2023/05/29 09:40:46;;;;;;;7.20;4.87;;;23.40;54.30;;;;;;5018763;28;20417;-65
2023/05/29 09:43:13;;;;;;;6.13;5.50;;;23.50;54.30;;;;;;5024971;28;20410;-65
2023/05/29 09:45:46;;;;;;;6.17;5.43;;;23.50;53.90;;;;;;5022487;28;20542;-65
2023/05/29 09:48:15;;;;;;;6.43;4.83;;;23.60;54.00;;;;;;5023558;28;20446;-65
2023/05/29 09:50:44;;;;;;;7.60;5.77;;;23.70;53.80;;;;;;5021736;28;20940;-65
2023/05/29 09:53:20;;;;;;;6.30;5.70;;;23.80;53.90;;;;;;5022960;28;20419;-65
2023/05/29 09:55:50;;;;;;;10.30;5.00;;;23.90;53.60;;;;;;5021290;28;20418;-65
2023/05/29 09:58:17;;;;;;;9.43;5.30;;;23.90;53.20;;;;;;5019373;28;20557;-65
2023/05/29 10:00:43;;;;;;;7.00;5.53;;;24.00;52.90;;;;;;5023153;28;20454;-65
2023/05/29 10:03:12;;;;;;;6.00;5.20;;;24.10;52.80;;;;;;5026913;28;20429;-65
2023/05/29 10:05:39;;;;;;;6.60;5.60;;;24.10;52.80;;;;;;5014763;28;20573;-66
2023/05/29 10:08:08;;;;;;;7.17;6.13;;;24.20;52.70;;;;;;5024587;28;20432;-66
2023/05/29 10:10:35;;;;;;;7.57;6.20;;;24.30;52.50;;;;;;5026567;28;20494;-66
2023/05/29 10:13:03;;;;;;;7.90;5.07;;;24.40;52.50;;;;;;5031610;28;20497;-66
2023/05/29 10:15:32;;;;;;;9.27;5.90;;;24.40;52.40;;;;;;5021888;28;20424;-66
2023/05/29 10:18:04;;;;;;;6.30;5.53;;;24.50;52.50;;;;;;5019931;28;20466;-65
2023/05/29 10:20:32;;;;;;;9.03;5.03;;;24.60;52.10;;;;;;5028896;28;20462;-64
2023/05/29 10:23:02;;;;;;;6.10;5.30;;;24.60;52.00;;;;;;5029701;28;20739;-64
2023/05/29 10:25:30;;;;;;;5.83;4.97;;;24.70;52.00;;;;;;5024165;28;20805;-64
2023/05/29 10:27:57;;;;;;;6.67;5.20;;;24.80;51.80;;;;;;5030708;28;20870;-64
2023/05/29 10:30:47;;;;;;;7.63;5.10;;;24.90;51.70;;;;;;5027805;28;20415;-64
2023/05/29 10:33:18;;;;;;;7.67;5.63;;;24.90;51.40;;;;;;5028978;28;20441;-64
2023/05/29 10:35:47;;;;;;;8.20;5.50;;;25.00;51.80;;;;;;5024533;28;20449;-64
2023/05/29 10:38:18;;;;;;;6.80;5.60;;;25.10;51.40;;;;;;5026939;28;20566;-64
2023/05/29 10:40:44;;;;;;;8.07;5.50;;;25.20;50.20;;;;;;5021370;28;20414;-64
2023/05/29 10:43:31;;;;;;;5.70;5.07;;;25.30;49.70;;;;;;5021841;28;20423;-64
2023/05/29 10:45:56;;;;;;;8.60;5.80;;;25.30;48.70;;;;;;5024888;28;20464;-64
2023/05/29 10:48:28;;;;;;;5.63;4.90;;;25.40;48.70;;;;;;5025800;28;21011;-64
2023/05/29 10:50:55;;;;;;;5.43;4.90;;;25.50;48.70;;;;;;5014800;28;20187;-65
2023/05/29 10:53:26;;;;;;;8.33;5.80;;;25.60;49.00;;;;;;5029467;28;20411;-64
2023/05/29 10:55:52;;;;;;;7.63;5.50;;;25.70;48.90;;;;;;5024140;28;20777;-64
2023/05/29 10:58:19;;;;;;;10.17;5.60;;;25.80;48.60;;;;;;5020735;28;20494;-64
2023/05/29 11:00:46;;;;;;;7.43;5.00;;;26.00;48.50;;;;;;5026022;28;20498;-64
2023/05/29 11:03:23;;;;;;;6.10;5.23;;;26.00;48.60;;;;;;5021693;28;20412;-65
2023/05/29 11:06:10;;;;;;;7.60;5.40;;;26.10;48.10;;;;;;5020713;28;20438;-64
2023/05/29 11:08:46;;;;;;;6.07;5.47;;;26.20;47.90;;;;;;5030986;28;20430;-64
2023/05/29 11:11:15;;;;;;;6.00;5.40;;;26.30;47.60;;;;;;5021026;28;20751;-64
2023/05/29 11:13:51;;;;;;;7.03;5.30;;;26.50;47.20;;;;;;5017537;28;20518;-64
2023/05/29 11:16:28;;;;;;;8.73;5.67;;;26.60;47.00;;;;;;5024930;28;20465;-64
2023/05/29 11:18:56;;;;;;;9.90;5.80;;;26.70;46.40;;;;;;5019203;28;20506;-64
2023/05/29 11:21:33;;;;;;;6.90;5.07;;;26.80;45.90;;;;;;5029156;28;20415;-64
2023/05/29 11:24:06;;;;;;;5.57;5.03;;;26.90;46.40;;;;;;5018533;28;20551;-64
2023/05/29 11:26:32;;;;;;;10.10;5.10;;;27.00;45.30;;;;;;5025995;28;20412;-64
2023/05/29 11:29:04;;;;;;;7.00;4.73;;;27.10;45.10;;;;;;5024878;28;20467;-65
2023/05/29 11:31:32;;;;;;;9.40;5.20;;;27.30;45.00;;;;;;5031455;28;20904;-64
2023/05/29 11:34:04;;;;;;;6.53;5.00;;;27.40;44.90;;;;;;5022905;28;20415;-64
2023/05/29 11:36:32;;;;;;;5.50;4.60;;;27.60;45.00;;;;;;5030619;28;21116;-64
2023/05/29 11:38:58;;;;;;;6.77;4.77;;;27.80;44.20;;;;;;5027032;28;20677;-64
2023/05/29 11:41:24;;;;;;;5.10;4.60;;;27.90;43.30;;;;;;5026266;28;20432;-64
2023/05/29 11:44:05;;;;;;;6.70;4.90;;;28.10;42.90;;;;;;5027795;28;20952;-64
2023/05/29 11:46:32;;;;;;;6.80;6.17;;;28.30;42.60;;;;;;5026766;28;20188;-64
2023/05/29 11:48:58;;;;;;;7.90;6.37;;;28.70;42.60;;;;;;5024295;28;21001;-64
2023/05/29 11:51:24;;;;;;;6.67;5.90;;;28.90;42.60;;;;;;5019087;28;20438;-64
2023/05/29 11:53:58;;;;;;;10.10;5.83;;;29.30;42.00;;;;;;5024840;28;20418;-65
2023/05/29 11:56:25;;;;;;;8.43;5.43;;;29.70;41.40;;;;;;5022069;28;20880;-64
2023/05/29 11:58:55;;;;;;;6.60;4.97;;;30.30;40.90;;;;;;5026828;28;20471;-65
2023/05/29 12:01:20;;;;;;;8.57;4.70;;;31.10;40.30;;;;;;5024219;28;20498;-65
2023/05/29 12:03:46;;;;;;;5.30;4.80;;;32.30;39.30;;;;;;5022235;28;20480;-65
2023/05/29 12:06:12;;;;;;;5.67;4.93;;;34.20;37.80;;;;;;5020540;28;20183;-65
2023/05/29 12:08:38;;;;;;;8.90;5.50;;;36.00;35.80;;;;;;5023404;28;20634;-64
2023/05/29 12:11:05;;;;;;;6.57;5.37;;;37.60;33.80;;;;;;5022860;28;20181;-64
2023/05/29 12:13:30;;;;;;;7.40;4.73;;;38.80;32.40;;;;;;5022180;28;20448;-64
2023/05/29 12:16:05;;;;;;;5.47;4.80;;;39.90;30.30;;;;;;5024712;28;20425;-64
2023/05/29 12:18:31;;;;;;;5.10;4.60;;;40.40;29.60;;;;;;5025324;28;20262;-65
2023/05/29 12:21:04;;;;;;;7.07;4.87;;;41.10;29.00;;;;;;5024443;28;20553;-64
2023/05/29 12:23:30;;;;;;;6.90;5.10;;;41.60;28.40;;;;;;5028306;28;20173;-64
2023/05/29 12:25:56;;;;;;;7.80;4.43;;;42.10;27.80;;;;;;5022129;28;20433;-64
2023/05/29 12:28:22;;;;;;;5.40;4.90;;;42.50;27.30;;;;;;5024288;28;20434;-64
2023/05/29 12:30:49;;;;;;;6.03;4.80;;;42.80;26.90;;;;;;5027062;28;20448;-64
2023/05/29 12:33:29;;;;;;;5.90;5.33;;;42.90;26.30;;;;;;5015520;28;20427;-65
2023/05/29 12:36:00;;;;;;;10.37;5.10;;;42.50;26.00;;;;;;5022218;28;20554;-64
2023/05/29 12:38:27;;;;;;;7.13;4.50;;;42.50;25.90;;;;;;5018398;28;21083;-64
2023/05/29 12:40:53;;;;;;;7.93;4.50;;;42.70;26.10;;;;;;5020336;28;20434;-64
2023/05/29 12:43:19;;;;;;;5.40;4.90;;;42.90;25.70;;;;;;5024972;28;20425;-64
2023/05/29 12:45:44;;;;;;;6.37;4.63;;;43.30;25.50;;;;;;5027206;28;20406;-65
2023/05/29 12:48:11;;;;;;;5.07;4.53;;;43.70;25.50;;;;;;5023375;28;20682;-65